sensor_id;sensor_type;location;lat;lon;timestamp;P1;durP1;ratioP1;P2;durP2;ratioP2
2992;SDS011;1506;48.932;9.478;2022-10-22T00:00:07;1.83;;;1.07;;
2992;SDS011;1506;48.932;9.478;2022-10-22T00:02:37;1.20;;;1.10;;
2992;SDS011;1506;48.932;9.478;2022-10-22T00:05:04;2.00;;;1.00;;
2992;SDS011;1506;48.932;9.478;2022-10-22T00:07:32;1.47;;;0.90;;
2992;SDS011;1506;48.932;9.478;2022-10-22T00:09:59;0.80;;;0.80;;
2992;SDS011;1506;48.932;9.478;2022-10-22T00:12:27;1.83;;;0.80;;
2992;SDS011;1506;48.932;9.478;2022-10-22T00:14:54;3.57;;;2.30;;
2992;SDS011;1506;48.932;9.478;2022-10-22T00:17:21;2.70;;;2.53;;
2992;SDS011;1506;48.932;9.478;2022-10-22T00:19:48;7.03;;;1.00;;
2992;SDS011;1506;48.932;9.478;2022-10-22T00:22:15;1.27;;;0.80;;
2992;SDS011;1506;48.932;9.478;2022-10-22T00:24:42;1.37;;;0.90;;
2992;SDS011;1506;48.932;9.478;2022-10-22T00:27:09;0.90;;;0.90;;
2992;SDS011;1506;48.932;9.478;2022-10-22T00:29:37;0.70;;;0.70;;
2992;SDS011;1506;48.932;9.478;2022-10-22T00:32:04;1.10;;;1.10;;
2992;SDS011;1506;48.932;9.478;2022-10-22T00:34:32;0.80;;;0.80;;
2992;SDS011;1506;48.932;9.478;2022-10-22T00:36:59;0.70;;;0.70;;
2992;SDS011;1506;48.932;9.478;2022-10-22T00:39:26;3.40;;;1.43;;
2992;SDS011;1506;48.932;9.478;2022-10-22T00:41:54;7.90;;;3.20;;
2992;SDS011;1506;48.932;9.478;2022-10-22T00:50:19;1.23;;;1.07;;
2992;SDS011;1506;48.932;9.478;2022-10-22T00:52:53;1.30;;;1.20;;
2992;SDS011;1506;48.932;9.478;2022-10-22T00:55:21;1.03;;;0.90;;
2992;SDS011;1506;48.932;9.478;2022-10-22T00:57:51;0.77;;;0.77;;
2992;SDS011;1506;48.932;9.478;2022-10-22T01:00:20;4.50;;;1.20;;
2992;SDS011;1506;48.932;9.478;2022-10-22T01:02:48;1.10;;;1.00;;
2992;SDS011;1506;48.932;9.478;2022-10-22T01:05:17;1.07;;;1.03;;
2992;SDS011;1506;48.932;9.478;2022-10-22T01:07:47;1.30;;;1.20;;
2992;SDS011;1506;48.932;9.478;2022-10-22T01:10:20;2.70;;;1.50;;
2992;SDS011;1506;48.932;9.478;2022-10-22T01:13:25;1.10;;;1.00;;
2992;SDS011;1506;48.932;9.478;2022-10-22T01:16:10;3.40;;;1.73;;
2992;SDS011;1506;48.932;9.478;2022-10-22T01:18:45;1.17;;;1.13;;
2992;SDS011;1506;48.932;9.478;2022-10-22T01:24:52;3.90;;;1.53;;
2992;SDS011;1506;48.932;9.478;2022-10-22T01:30:28;0.90;;;0.90;;
2992;SDS011;1506;48.932;9.478;2022-10-22T01:32:56;1.03;;;0.83;;
2992;SDS011;1506;48.932;9.478;2022-10-22T01:35:39;0.80;;;0.80;;
2992;SDS011;1506;48.932;9.478;2022-10-22T01:38:11;10.03;;;1.10;;
2992;SDS011;1506;48.932;9.478;2022-10-22T01:40:44;1.40;;;1.30;;
2992;SDS011;1506;48.932;9.478;2022-10-22T01:43:13;0.97;;;0.93;;
2992;SDS011;1506;48.932;9.478;2022-10-22T01:59:33;1.67;;;1.57;;
2992;SDS011;1506;48.932;9.478;2022-10-22T02:05:12;1.27;;;1.17;;
2992;SDS011;1506;48.932;9.478;2022-10-22T02:07:50;1.20;;;1.20;;
2992;SDS011;1506;48.932;9.478;2022-10-22T02:10:41;4.47;;;1.27;;
2992;SDS011;1506;48.932;9.478;2022-10-22T02:13:16;1.10;;;1.10;;
2992;SDS011;1506;48.932;9.478;2022-10-22T02:15:49;0.83;;;0.83;;
2992;SDS011;1506;48.932;9.478;2022-10-22T02:18:21;0.90;;;0.90;;
2992;SDS011;1506;48.932;9.478;2022-10-22T02:20:53;1.50;;;1.47;;
2992;SDS011;1506;48.932;9.478;2022-10-22T02:23:21;1.20;;;1.10;;
2992;SDS011;1506;48.932;9.478;2022-10-22T02:25:50;0.80;;;0.80;;
2992;SDS011;1506;48.932;9.478;2022-10-22T02:28:51;3.77;;;0.80;;
2992;SDS011;1506;48.932;9.478;2022-10-22T02:31:22;1.57;;;1.27;;
2992;SDS011;1506;48.932;9.478;2022-10-22T02:33:55;3.73;;;0.90;;
2992;SDS011;1506;48.932;9.478;2022-10-22T02:36:26;1.07;;;0.97;;
2992;SDS011;1506;48.932;9.478;2022-10-22T02:38:54;3.77;;;1.40;;
2992;SDS011;1506;48.932;9.478;2022-10-22T02:41:21;0.90;;;0.90;;
2992;SDS011;1506;48.932;9.478;2022-10-22T02:43:50;1.00;;;0.90;;
2992;SDS011;1506;48.932;9.478;2022-10-22T02:46:20;1.10;;;0.90;;
2992;SDS011;1506;48.932;9.478;2022-10-22T02:48:48;0.60;;;0.60;;
2992;SDS011;1506;48.932;9.478;2022-10-22T02:51:15;0.80;;;0.80;;
2992;SDS011;1506;48.932;9.478;2022-10-22T02:53:42;0.60;;;0.60;;
2992;SDS011;1506;48.932;9.478;2022-10-22T02:56:09;0.90;;;0.80;;
2992;SDS011;1506;48.932;9.478;2022-10-22T02:58:36;0.70;;;0.70;;
2992;SDS011;1506;48.932;9.478;2022-10-22T03:01:03;1.10;;;1.00;;
2992;SDS011;1506;48.932;9.478;2022-10-22T03:03:30;1.30;;;1.20;;
2992;SDS011;1506;48.932;9.478;2022-10-22T03:05:57;0.87;;;0.87;;
2992;SDS011;1506;48.932;9.478;2022-10-22T03:08:24;1.27;;;1.17;;
2992;SDS011;1506;48.932;9.478;2022-10-22T03:10:51;5.90;;;1.20;;
2992;SDS011;1506;48.932;9.478;2022-10-22T03:13:18;1.60;;;1.50;;
2992;SDS011;1506;48.932;9.478;2022-10-22T03:15:47;5.90;;;1.00;;
2992;SDS011;1506;48.932;9.478;2022-10-22T03:18:15;1.40;;;1.30;;
2992;SDS011;1506;48.932;9.478;2022-10-22T03:20:43;1.10;;;1.00;;
2992;SDS011;1506;48.932;9.478;2022-10-22T03:23:10;2.60;;;1.33;;
2992;SDS011;1506;48.932;9.478;2022-10-22T03:25:40;1.00;;;0.90;;
2992;SDS011;1506;48.932;9.478;2022-10-22T03:28:09;4.40;;;0.93;;
2992;SDS011;1506;48.932;9.478;2022-10-22T03:30:39;1.00;;;1.00;;
2992;SDS011;1506;48.932;9.478;2022-10-22T03:33:06;4.00;;;1.07;;
2992;SDS011;1506;48.932;9.478;2022-10-22T03:35:34;1.37;;;1.27;;
2992;SDS011;1506;48.932;9.478;2022-10-22T03:38:09;1.50;;;1.40;;
2992;SDS011;1506;48.932;9.478;2022-10-22T03:40:37;1.13;;;1.13;;
2992;SDS011;1506;48.932;9.478;2022-10-22T03:43:05;1.60;;;1.50;;
2992;SDS011;1506;48.932;9.478;2022-10-22T03:45:32;2.63;;;1.03;;
2992;SDS011;1506;48.932;9.478;2022-10-22T03:47:59;2.20;;;1.30;;
2992;SDS011;1506;48.932;9.478;2022-10-22T03:50:26;3.23;;;1.53;;
2992;SDS011;1506;48.932;9.478;2022-10-22T03:52:53;0.93;;;0.93;;
2992;SDS011;1506;48.932;9.478;2022-10-22T03:55:20;4.10;;;1.10;;
2992;SDS011;1506;48.932;9.478;2022-10-22T03:57:47;6.47;;;0.83;;
2992;SDS011;1506;48.932;9.478;2022-10-22T04:00:14;0.70;;;0.70;;
2992;SDS011;1506;48.932;9.478;2022-10-22T04:02:41;1.27;;;0.70;;
2992;SDS011;1506;48.932;9.478;2022-10-22T04:05:08;1.20;;;1.20;;
2992;SDS011;1506;48.932;9.478;2022-10-22T04:07:35;7.80;;;1.07;;
2992;SDS011;1506;48.932;9.478;2022-10-22T04:10:03;1.13;;;0.90;;
2992;SDS011;1506;48.932;9.478;2022-10-22T04:12:30;1.10;;;1.00;;
2992;SDS011;1506;48.932;9.478;2022-10-22T04:14:57;0.97;;;0.97;;
2992;SDS011;1506;48.932;9.478;2022-10-22T04:17:24;5.10;;;1.10;;
2992;SDS011;1506;48.932;9.478;2022-10-22T04:19:51;0.93;;;0.93;;
2992;SDS011;1506;48.932;9.478;2022-10-22T04:22:18;5.80;;;1.13;;
2992;SDS011;1506;48.932;9.478;2022-10-22T04:24:45;0.90;;;0.90;;
2992;SDS011;1506;48.932;9.478;2022-10-22T04:27:12;0.70;;;0.70;;
2992;SDS011;1506;48.932;9.478;2022-10-22T04:29:39;0.90;;;0.90;;
2992;SDS011;1506;48.932;9.478;2022-10-22T04:32:06;1.20;;;1.10;;
2992;SDS011;1506;48.932;9.478;2022-10-22T04:34:32;1.20;;;1.10;;
2992;SDS011;1506;48.932;9.478;2022-10-22T04:36:59;2.70;;;1.77;;
2992;SDS011;1506;48.932;9.478;2022-10-22T04:39:26;1.60;;;0.80;;
2992;SDS011;1506;48.932;9.478;2022-10-22T04:41:54;0.70;;;0.70;;
2992;SDS011;1506;48.932;9.478;2022-10-22T04:44:21;1.20;;;1.10;;
2992;SDS011;1506;48.932;9.478;2022-10-22T04:46:48;1.10;;;1.00;;
2992;SDS011;1506;48.932;9.478;2022-10-22T04:49:15;0.80;;;0.80;;
2992;SDS011;1506;48.932;9.478;2022-10-22T04:51:42;1.30;;;1.20;;
2992;SDS011;1506;48.932;9.478;2022-10-22T04:54:09;5.80;;;1.80;;
2992;SDS011;1506;48.932;9.478;2022-10-22T04:56:36;0.90;;;0.90;;
2992;SDS011;1506;48.932;9.478;2022-10-22T04:59:05;2.57;;;1.10;;
2992;SDS011;1506;48.932;9.478;2022-10-22T05:01:34;1.30;;;1.20;;
2992;SDS011;1506;48.932;9.478;2022-10-22T05:04:12;0.90;;;0.80;;
2992;SDS011;1506;48.932;9.478;2022-10-22T05:06:42;1.10;;;1.00;;
2992;SDS011;1506;48.932;9.478;2022-10-22T05:09:11;1.07;;;0.90;;
2992;SDS011;1506;48.932;9.478;2022-10-22T05:11:42;0.60;;;0.60;;
2992;SDS011;1506;48.932;9.478;2022-10-22T05:14:11;1.73;;;0.80;;
2992;SDS011;1506;48.932;9.478;2022-10-22T05:16:38;0.80;;;0.80;;
2992;SDS011;1506;48.932;9.478;2022-10-22T05:19:06;3.43;;;1.53;;
2992;SDS011;1506;48.932;9.478;2022-10-22T05:21:33;2.80;;;1.10;;
2992;SDS011;1506;48.932;9.478;2022-10-22T05:24:00;1.17;;;1.17;;
2992;SDS011;1506;48.932;9.478;2022-10-22T05:26:29;1.23;;;0.97;;
2992;SDS011;1506;48.932;9.478;2022-10-22T05:28:56;1.20;;;1.10;;
2992;SDS011;1506;48.932;9.478;2022-10-22T05:31:23;0.73;;;0.73;;
2992;SDS011;1506;48.932;9.478;2022-10-22T05:33:50;1.40;;;1.30;;
2992;SDS011;1506;48.932;9.478;2022-10-22T05:36:18;1.53;;;0.90;;
2992;SDS011;1506;48.932;9.478;2022-10-22T05:38:47;6.47;;;1.20;;
2992;SDS011;1506;48.932;9.478;2022-10-22T05:41:16;10.50;;;1.33;;
2992;SDS011;1506;48.932;9.478;2022-10-22T05:43:46;0.87;;;0.87;;
2992;SDS011;1506;48.932;9.478;2022-10-22T05:46:14;1.40;;;1.10;;
2992;SDS011;1506;48.932;9.478;2022-10-22T05:48:51;2.30;;;1.47;;
2992;SDS011;1506;48.932;9.478;2022-10-22T05:51:25;1.10;;;1.00;;
2992;SDS011;1506;48.932;9.478;2022-10-22T05:53:55;1.27;;;1.17;;
2992;SDS011;1506;48.932;9.478;2022-10-22T05:56:27;2.60;;;1.03;;
2992;SDS011;1506;48.932;9.478;2022-10-22T05:58:55;1.40;;;1.13;;
2992;SDS011;1506;48.932;9.478;2022-10-22T06:01:25;1.80;;;1.70;;
2992;SDS011;1506;48.932;9.478;2022-10-22T06:03:58;1.73;;;1.63;;
2992;SDS011;1506;48.932;9.478;2022-10-22T06:06:31;1.43;;;1.43;;
2992;SDS011;1506;48.932;9.478;2022-10-22T06:11:56;1.30;;;1.20;;
2992;SDS011;1506;48.932;9.478;2022-10-22T06:14:24;4.10;;;1.97;;
2992;SDS011;1506;48.932;9.478;2022-10-22T06:16:53;2.90;;;2.43;;
2992;SDS011;1506;48.932;9.478;2022-10-22T06:19:21;2.60;;;2.50;;
2992;SDS011;1506;48.932;9.478;2022-10-22T06:21:52;4.23;;;3.17;;
2992;SDS011;1506;48.932;9.478;2022-10-22T06:24:19;3.07;;;2.77;;
2992;SDS011;1506;48.932;9.478;2022-10-22T06:26:50;2.70;;;1.90;;
2992;SDS011;1506;48.932;9.478;2022-10-22T06:29:18;1.67;;;1.57;;
2992;SDS011;1506;48.932;9.478;2022-10-22T06:31:45;1.20;;;1.20;;
2992;SDS011;1506;48.932;9.478;2022-10-22T06:34:13;2.93;;;1.63;;
2992;SDS011;1506;48.932;9.478;2022-10-22T06:36:40;2.30;;;1.30;;
2992;SDS011;1506;48.932;9.478;2022-10-22T06:39:13;1.07;;;1.07;;
2992;SDS011;1506;48.932;9.478;2022-10-22T06:41:42;1.20;;;1.20;;
2992;SDS011;1506;48.932;9.478;2022-10-22T06:44:15;1.80;;;1.70;;
2992;SDS011;1506;48.932;9.478;2022-10-22T06:46:43;2.07;;;1.83;;
2992;SDS011;1506;48.932;9.478;2022-10-22T06:49:11;2.57;;;2.37;;
2992;SDS011;1506;48.932;9.478;2022-10-22T06:51:40;5.50;;;3.60;;
2992;SDS011;1506;48.932;9.478;2022-10-22T06:54:07;8.70;;;2.73;;
2992;SDS011;1506;48.932;9.478;2022-10-22T06:56:34;2.53;;;2.43;;
2992;SDS011;1506;48.932;9.478;2022-10-22T06:59:01;2.63;;;2.53;;
2992;SDS011;1506;48.932;9.478;2022-10-22T07:01:30;2.20;;;2.10;;
2992;SDS011;1506;48.932;9.478;2022-10-22T07:03:59;2.17;;;1.73;;
2992;SDS011;1506;48.932;9.478;2022-10-22T07:06:27;2.80;;;2.70;;
2992;SDS011;1506;48.932;9.478;2022-10-22T07:08:55;2.10;;;1.97;;
2992;SDS011;1506;48.932;9.478;2022-10-22T07:11:28;2.50;;;2.30;;
2992;SDS011;1506;48.932;9.478;2022-10-22T07:14:07;2.30;;;2.10;;
2992;SDS011;1506;48.932;9.478;2022-10-22T07:16:34;3.20;;;2.40;;
2992;SDS011;1506;48.932;9.478;2022-10-22T07:19:02;2.30;;;2.20;;
2992;SDS011;1506;48.932;9.478;2022-10-22T07:21:30;1.97;;;1.87;;
2992;SDS011;1506;48.932;9.478;2022-10-22T07:23:57;2.40;;;2.23;;
2992;SDS011;1506;48.932;9.478;2022-10-22T07:26:25;5.53;;;1.63;;
2992;SDS011;1506;48.932;9.478;2022-10-22T07:28:56;1.60;;;1.50;;
2992;SDS011;1506;48.932;9.478;2022-10-22T07:31:23;2.27;;;2.17;;
2992;SDS011;1506;48.932;9.478;2022-10-22T07:33:50;1.90;;;1.80;;
2992;SDS011;1506;48.932;9.478;2022-10-22T07:36:18;1.80;;;1.70;;
2992;SDS011;1506;48.932;9.478;2022-10-22T07:38:45;1.73;;;1.63;;
2992;SDS011;1506;48.932;9.478;2022-10-22T07:41:18;1.60;;;1.50;;
2992;SDS011;1506;48.932;9.478;2022-10-22T07:43:45;1.60;;;1.50;;
2992;SDS011;1506;48.932;9.478;2022-10-22T07:46:12;1.83;;;1.73;;
2992;SDS011;1506;48.932;9.478;2022-10-22T07:48:39;2.07;;;1.90;;
2992;SDS011;1506;48.932;9.478;2022-10-22T07:51:06;10.83;;;1.77;;
2992;SDS011;1506;48.932;9.478;2022-10-22T07:53:33;1.10;;;1.10;;
2992;SDS011;1506;48.932;9.478;2022-10-22T07:56:01;1.60;;;1.50;;
2992;SDS011;1506;48.932;9.478;2022-10-22T07:58:28;1.57;;;1.53;;
2992;SDS011;1506;48.932;9.478;2022-10-22T08:00:56;2.30;;;2.20;;
2992;SDS011;1506;48.932;9.478;2022-10-22T08:03:28;1.27;;;1.17;;
2992;SDS011;1506;48.932;9.478;2022-10-22T08:05:55;2.60;;;2.50;;
2992;SDS011;1506;48.932;9.478;2022-10-22T08:08:22;1.93;;;1.83;;
2992;SDS011;1506;48.932;9.478;2022-10-22T08:10:55;1.60;;;1.50;;
2992;SDS011;1506;48.932;9.478;2022-10-22T08:13:24;2.13;;;1.93;;
2992;SDS011;1506;48.932;9.478;2022-10-22T08:15:52;5.00;;;2.40;;
2992;SDS011;1506;48.932;9.478;2022-10-22T08:18:23;6.00;;;3.33;;
2992;SDS011;1506;48.932;9.478;2022-10-22T08:20:50;4.40;;;4.10;;
2992;SDS011;1506;48.932;9.478;2022-10-22T08:23:18;3.07;;;2.77;;
2992;SDS011;1506;48.932;9.478;2022-10-22T08:25:49;2.73;;;2.23;;
2992;SDS011;1506;48.932;9.478;2022-10-22T08:28:16;12.13;;;1.70;;
2992;SDS011;1506;48.932;9.478;2022-10-22T08:30:47;3.93;;;2.90;;
2992;SDS011;1506;48.932;9.478;2022-10-22T08:33:14;1.97;;;1.87;;
2992;SDS011;1506;48.932;9.478;2022-10-22T08:35:43;2.13;;;1.93;;
2992;SDS011;1506;48.932;9.478;2022-10-22T08:38:15;1.70;;;1.60;;
2992;SDS011;1506;48.932;9.478;2022-10-22T08:40:43;7.13;;;2.37;;
2992;SDS011;1506;48.932;9.478;2022-10-22T08:43:28;19.90;;;2.20;;
2992;SDS011;1506;48.932;9.478;2022-10-22T08:49:28;3.20;;;1.67;;
2992;SDS011;1506;48.932;9.478;2022-10-22T08:52:07;2.20;;;1.43;;
2992;SDS011;1506;48.932;9.478;2022-10-22T08:54:51;1.20;;;1.10;;
2992;SDS011;1506;48.932;9.478;2022-10-22T09:00:36;4.73;;;1.00;;
2992;SDS011;1506;48.932;9.478;2022-10-22T09:03:29;0.97;;;0.97;;
2992;SDS011;1506;48.932;9.478;2022-10-22T09:06:29;1.00;;;0.80;;
2992;SDS011;1506;48.932;9.478;2022-10-22T09:08:58;0.90;;;0.60;;
2992;SDS011;1506;48.932;9.478;2022-10-22T09:14:16;0.50;;;0.50;;
2992;SDS011;1506;48.932;9.478;2022-10-22T09:17:01;0.67;;;0.53;;
2992;SDS011;1506;48.932;9.478;2022-10-22T09:22:55;1.53;;;0.63;;
2992;SDS011;1506;48.932;9.478;2022-10-22T09:26:00;0.60;;;0.50;;
2992;SDS011;1506;48.932;9.478;2022-10-22T09:28:27;1.47;;;0.60;;
2992;SDS011;1506;48.932;9.478;2022-10-22T09:30:54;0.70;;;0.70;;
2992;SDS011;1506;48.932;9.478;2022-10-22T09:33:25;0.77;;;0.77;;
2992;SDS011;1506;48.932;9.478;2022-10-22T09:35:57;1.17;;;0.70;;
2992;SDS011;1506;48.932;9.478;2022-10-22T09:38:29;0.97;;;0.60;;
2992;SDS011;1506;48.932;9.478;2022-10-22T09:41:06;0.60;;;0.50;;
2992;SDS011;1506;48.932;9.478;2022-10-22T09:43:34;0.60;;;0.50;;
2992;SDS011;1506;48.932;9.478;2022-10-22T09:46:06;0.80;;;0.70;;
2992;SDS011;1506;48.932;9.478;2022-10-22T09:48:42;0.60;;;0.50;;
2992;SDS011;1506;48.932;9.478;2022-10-22T09:56:42;0.80;;;0.53;;
2992;SDS011;1506;48.932;9.478;2022-10-22T09:59:17;9.23;;;0.90;;
2992;SDS011;1506;48.932;9.478;2022-10-22T10:01:55;0.90;;;0.70;;
2992;SDS011;1506;48.932;9.478;2022-10-22T10:04:46;0.67;;;0.50;;
2992;SDS011;1506;48.932;9.478;2022-10-22T10:07:23;0.70;;;0.67;;
2992;SDS011;1506;48.932;9.478;2022-10-22T10:09:53;0.70;;;0.60;;
2992;SDS011;1506;48.932;9.478;2022-10-22T10:15:26;1.63;;;0.80;;
2992;SDS011;1506;48.932;9.478;2022-10-22T10:21:20;1.07;;;0.80;;
2992;SDS011;1506;48.932;9.478;2022-10-22T10:24:25;1.00;;;0.60;;
2992;SDS011;1506;48.932;9.478;2022-10-22T10:26:59;1.30;;;0.90;;
2992;SDS011;1506;48.932;9.478;2022-10-22T10:29:54;0.97;;;0.70;;
2992;SDS011;1506;48.932;9.478;2022-10-22T10:32:28;0.70;;;0.60;;
2992;SDS011;1506;48.932;9.478;2022-10-22T10:49:34;0.70;;;0.70;;
2992;SDS011;1506;48.932;9.478;2022-10-22T10:57:49;1.17;;;0.60;;
2992;SDS011;1506;48.932;9.478;2022-10-22T11:00:52;0.83;;;0.83;;
2992;SDS011;1506;48.932;9.478;2022-10-22T11:06:09;2.50;;;1.10;;
2992;SDS011;1506;48.932;9.478;2022-10-22T11:08:49;1.27;;;0.60;;
2992;SDS011;1506;48.932;9.478;2022-10-22T11:11:31;0.70;;;0.70;;
2992;SDS011;1506;48.932;9.478;2022-10-22T11:14:31;0.60;;;0.60;;
2992;SDS011;1506;48.932;9.478;2022-10-22T11:17:03;0.60;;;0.60;;
2992;SDS011;1506;48.932;9.478;2022-10-22T11:19:40;0.77;;;0.70;;
2992;SDS011;1506;48.932;9.478;2022-10-22T11:22:24;0.93;;;0.70;;
2992;SDS011;1506;48.932;9.478;2022-10-22T11:25:17;0.80;;;0.60;;
2992;SDS011;1506;48.932;9.478;2022-10-22T11:30:31;2.80;;;0.90;;
2992;SDS011;1506;48.932;9.478;2022-10-22T11:33:05;3.03;;;0.70;;
2992;SDS011;1506;48.932;9.478;2022-10-22T11:35:41;0.60;;;0.60;;
2992;SDS011;1506;48.932;9.478;2022-10-22T11:38:14;5.40;;;1.10;;
2992;SDS011;1506;48.932;9.478;2022-10-22T11:41:06;0.70;;;0.60;;
2992;SDS011;1506;48.932;9.478;2022-10-22T11:44:25;2.80;;;0.70;;
2992;SDS011;1506;48.932;9.478;2022-10-22T11:46:43;2.03;;;0.70;;
2992;SDS011;1506;48.932;9.478;2022-10-22T11:49:26;1.53;;;0.80;;
2992;SDS011;1506;48.932;9.478;2022-10-22T11:52:52;0.60;;;0.50;;
2992;SDS011;1506;48.932;9.478;2022-10-22T11:55:27;0.60;;;0.60;;
2992;SDS011;1506;48.932;9.478;2022-10-22T12:06:52;1.53;;;0.70;;
2992;SDS011;1506;48.932;9.478;2022-10-22T12:09:25;0.70;;;0.50;;
2992;SDS011;1506;48.932;9.478;2022-10-22T12:12:00;0.70;;;0.60;;
2992;SDS011;1506;48.932;9.478;2022-10-22T12:14:52;3.17;;;1.20;;
2992;SDS011;1506;48.932;9.478;2022-10-22T12:17:24;0.60;;;0.60;;
2992;SDS011;1506;48.932;9.478;2022-10-22T12:20:01;2.73;;;0.90;;
2992;SDS011;1506;48.932;9.478;2022-10-22T12:22:39;2.20;;;0.70;;
2992;SDS011;1506;48.932;9.478;2022-10-22T12:25:17;2.20;;;0.70;;
2992;SDS011;1506;48.932;9.478;2022-10-22T12:27:52;1.57;;;0.87;;
2992;SDS011;1506;48.932;9.478;2022-10-22T12:30:24;1.17;;;0.83;;
2992;SDS011;1506;48.932;9.478;2022-10-22T12:32:54;0.80;;;0.73;;
2992;SDS011;1506;48.932;9.478;2022-10-22T12:35:41;0.60;;;0.50;;
2992;SDS011;1506;48.932;9.478;2022-10-22T12:38:13;1.17;;;0.70;;
2992;SDS011;1506;48.932;9.478;2022-10-22T12:40:43;1.90;;;1.00;;
2992;SDS011;1506;48.932;9.478;2022-10-22T12:43:18;0.77;;;0.60;;
2992;SDS011;1506;48.932;9.478;2022-10-22T12:45:50;1.40;;;0.67;;
2992;SDS011;1506;48.932;9.478;2022-10-22T12:48:27;0.80;;;0.70;;
2992;SDS011;1506;48.932;9.478;2022-10-22T12:50:59;1.10;;;0.90;;
2992;SDS011;1506;48.932;9.478;2022-10-22T12:56:09;0.87;;;0.70;;
2992;SDS011;1506;48.932;9.478;2022-10-22T12:58:46;1.80;;;0.60;;
2992;SDS011;1506;48.932;9.478;2022-10-22T13:01:17;1.40;;;0.80;;
2992;SDS011;1506;48.932;9.478;2022-10-22T13:03:48;3.53;;;0.70;;
2992;SDS011;1506;48.932;9.478;2022-10-22T13:09:07;1.00;;;0.93;;
2992;SDS011;1506;48.932;9.478;2022-10-22T13:11:41;2.10;;;0.67;;
2992;SDS011;1506;48.932;9.478;2022-10-22T13:17:17;3.00;;;1.00;;
2992;SDS011;1506;48.932;9.478;2022-10-22T13:24:58;1.97;;;0.70;;
2992;SDS011;1506;48.932;9.478;2022-10-22T13:27:45;14.80;;;0.90;;
2992;SDS011;1506;48.932;9.478;2022-10-22T13:30:18;1.27;;;0.70;;
2992;SDS011;1506;48.932;9.478;2022-10-22T13:32:51;10.17;;;0.80;;
2992;SDS011;1506;48.932;9.478;2022-10-22T13:35:52;0.80;;;0.80;;
2992;SDS011;1506;48.932;9.478;2022-10-22T13:38:23;0.90;;;0.50;;
2992;SDS011;1506;48.932;9.478;2022-10-22T13:40:51;1.70;;;0.60;;
2992;SDS011;1506;48.932;9.478;2022-10-22T13:43:19;0.90;;;0.67;;
2992;SDS011;1506;48.932;9.478;2022-10-22T13:45:46;0.70;;;0.57;;
2992;SDS011;1506;48.932;9.478;2022-10-22T13:48:17;2.50;;;1.00;;
2992;SDS011;1506;48.932;9.478;2022-10-22T13:50:50;0.93;;;0.80;;
2992;SDS011;1506;48.932;9.478;2022-10-22T13:53:20;2.40;;;0.70;;
2992;SDS011;1506;48.932;9.478;2022-10-22T13:55:48;0.80;;;0.80;;
2992;SDS011;1506;48.932;9.478;2022-10-22T13:58:20;1.67;;;0.87;;
2992;SDS011;1506;48.932;9.478;2022-10-22T14:00:55;0.70;;;0.70;;
2992;SDS011;1506;48.932;9.478;2022-10-22T14:03:31;1.17;;;0.80;;
2992;SDS011;1506;48.932;9.478;2022-10-22T14:06:00;2.70;;;0.93;;
2992;SDS011;1506;48.932;9.478;2022-10-22T14:08:27;1.53;;;0.60;;
2992;SDS011;1506;48.932;9.478;2022-10-22T14:10:54;0.67;;;0.57;;
2992;SDS011;1506;48.932;9.478;2022-10-22T14:13:22;1.43;;;0.70;;
2992;SDS011;1506;48.932;9.478;2022-10-22T14:15:50;0.80;;;0.67;;
2992;SDS011;1506;48.932;9.478;2022-10-22T14:18:19;3.63;;;0.63;;
2992;SDS011;1506;48.932;9.478;2022-10-22T14:20:55;3.37;;;0.70;;
2992;SDS011;1506;48.932;9.478;2022-10-22T14:23:24;1.53;;;0.60;;
2992;SDS011;1506;48.932;9.478;2022-10-22T14:25:54;0.60;;;0.60;;
2992;SDS011;1506;48.932;9.478;2022-10-22T14:28:21;1.90;;;0.80;;
2992;SDS011;1506;48.932;9.478;2022-10-22T14:30:49;0.60;;;0.60;;
2992;SDS011;1506;48.932;9.478;2022-10-22T14:33:18;1.50;;;1.40;;
2992;SDS011;1506;48.932;9.478;2022-10-22T14:35:56;0.83;;;0.80;;
2992;SDS011;1506;48.932;9.478;2022-10-22T14:38:24;2.20;;;0.80;;
2992;SDS011;1506;48.932;9.478;2022-10-22T14:40:52;1.43;;;0.80;;
2992;SDS011;1506;48.932;9.478;2022-10-22T14:43:24;1.50;;;0.70;;
2992;SDS011;1506;48.932;9.478;2022-10-22T14:45:52;3.20;;;0.83;;
2992;SDS011;1506;48.932;9.478;2022-10-22T14:48:20;0.80;;;0.60;;
2992;SDS011;1506;48.932;9.478;2022-10-22T14:50:47;1.30;;;1.03;;
2992;SDS011;1506;48.932;9.478;2022-10-22T14:53:15;3.23;;;0.77;;
2992;SDS011;1506;48.932;9.478;2022-10-22T14:55:45;8.77;;;0.97;;
2992;SDS011;1506;48.932;9.478;2022-10-22T14:58:14;0.63;;;0.63;;
2992;SDS011;1506;48.932;9.478;2022-10-22T15:00:41;0.97;;;0.87;;
2992;SDS011;1506;48.932;9.478;2022-10-22T15:03:09;2.20;;;1.03;;
2992;SDS011;1506;48.932;9.478;2022-10-22T15:05:41;0.60;;;0.60;;
2992;SDS011;1506;48.932;9.478;2022-10-22T15:08:10;6.87;;;0.90;;
2992;SDS011;1506;48.932;9.478;2022-10-22T15:10:39;2.20;;;0.60;;
2992;SDS011;1506;48.932;9.478;2022-10-22T15:13:06;2.77;;;1.00;;
2992;SDS011;1506;48.932;9.478;2022-10-22T15:15:34;1.47;;;0.77;;
2992;SDS011;1506;48.932;9.478;2022-10-22T15:18:05;2.80;;;0.77;;
2992;SDS011;1506;48.932;9.478;2022-10-22T15:20:32;1.37;;;0.70;;
2992;SDS011;1506;48.932;9.478;2022-10-22T15:23:00;0.60;;;0.50;;
2992;SDS011;1506;48.932;9.478;2022-10-22T15:25:27;1.17;;;1.07;;
2992;SDS011;1506;48.932;9.478;2022-10-22T15:27:55;0.83;;;0.83;;
2992;SDS011;1506;48.932;9.478;2022-10-22T15:30:32;4.00;;;0.97;;
2992;SDS011;1506;48.932;9.478;2022-10-22T15:33:00;3.37;;;0.97;;
2992;SDS011;1506;48.932;9.478;2022-10-22T15:35:27;0.87;;;0.87;;
2992;SDS011;1506;48.932;9.478;2022-10-22T15:37:55;1.30;;;1.00;;
2992;SDS011;1506;48.932;9.478;2022-10-22T15:40:22;1.40;;;1.30;;
2992;SDS011;1506;48.932;9.478;2022-10-22T15:42:49;5.53;;;1.10;;
2992;SDS011;1506;48.932;9.478;2022-10-22T15:45:17;2.10;;;1.33;;
2992;SDS011;1506;48.932;9.478;2022-10-22T15:47:46;1.17;;;1.07;;
2992;SDS011;1506;48.932;9.478;2022-10-22T15:50:14;1.43;;;1.33;;
2992;SDS011;1506;48.932;9.478;2022-10-22T15:52:42;1.67;;;0.90;;
2992;SDS011;1506;48.932;9.478;2022-10-22T15:55:09;1.33;;;1.23;;
2992;SDS011;1506;48.932;9.478;2022-10-22T15:57:42;2.03;;;1.30;;
2992;SDS011;1506;48.932;9.478;2022-10-22T16:00:10;1.90;;;1.37;;
2992;SDS011;1506;48.932;9.478;2022-10-22T16:02:38;3.37;;;1.63;;
2992;SDS011;1506;48.932;9.478;2022-10-22T16:05:05;4.50;;;2.33;;
2992;SDS011;1506;48.932;9.478;2022-10-22T16:07:33;2.40;;;1.63;;
2992;SDS011;1506;48.932;9.478;2022-10-22T16:10:00;1.00;;;0.90;;
2992;SDS011;1506;48.932;9.478;2022-10-22T16:12:28;1.87;;;1.20;;
2992;SDS011;1506;48.932;9.478;2022-10-22T16:14:55;1.47;;;1.37;;
2992;SDS011;1506;48.932;9.478;2022-10-22T16:17:22;1.10;;;0.97;;
2992;SDS011;1506;48.932;9.478;2022-10-22T16:19:50;1.10;;;0.80;;
2992;SDS011;1506;48.932;9.478;2022-10-22T16:22:17;1.13;;;1.03;;
2992;SDS011;1506;48.932;9.478;2022-10-22T16:24:44;16.17;;;1.53;;
2992;SDS011;1506;48.932;9.478;2022-10-22T16:27:12;5.23;;;0.80;;
2992;SDS011;1506;48.932;9.478;2022-10-22T16:29:39;1.50;;;1.20;;
2992;SDS011;1506;48.932;9.478;2022-10-22T16:32:07;1.37;;;1.17;;
2992;SDS011;1506;48.932;9.478;2022-10-22T16:34:34;3.10;;;2.10;;
2992;SDS011;1506;48.932;9.478;2022-10-22T16:37:01;3.30;;;2.40;;
2992;SDS011;1506;48.932;9.478;2022-10-22T16:39:35;2.03;;;1.33;;
2992;SDS011;1506;48.932;9.478;2022-10-22T16:42:02;5.37;;;2.00;;
2992;SDS011;1506;48.932;9.478;2022-10-22T16:44:30;4.80;;;1.60;;
2992;SDS011;1506;48.932;9.478;2022-10-22T16:46:57;2.67;;;1.30;;
2992;SDS011;1506;48.932;9.478;2022-10-22T16:49:26;6.40;;;1.10;;
2992;SDS011;1506;48.932;9.478;2022-10-22T16:51:53;10.43;;;1.83;;
2992;SDS011;1506;48.932;9.478;2022-10-22T16:54:20;6.13;;;1.50;;
2992;SDS011;1506;48.932;9.478;2022-10-22T16:56:48;2.57;;;1.23;;
2992;SDS011;1506;48.932;9.478;2022-10-22T16:59:15;5.13;;;2.60;;
2992;SDS011;1506;48.932;9.478;2022-10-22T17:01:42;3.87;;;3.33;;
2992;SDS011;1506;48.932;9.478;2022-10-22T17:04:10;3.20;;;3.00;;
2992;SDS011;1506;48.932;9.478;2022-10-22T17:06:37;5.40;;;4.90;;
2992;SDS011;1506;48.932;9.478;2022-10-22T17:09:04;9.70;;;8.70;;
2992;SDS011;1506;48.932;9.478;2022-10-22T17:11:32;12.57;;;10.43;;
2992;SDS011;1506;48.932;9.478;2022-10-22T17:14:03;32.47;;;22.13;;
2992;SDS011;1506;48.932;9.478;2022-10-22T17:16:30;4.27;;;3.87;;
2992;SDS011;1506;48.932;9.478;2022-10-22T17:18:58;3.87;;;3.67;;
2992;SDS011;1506;48.932;9.478;2022-10-22T17:21:25;2.03;;;1.90;;
2992;SDS011;1506;48.932;9.478;2022-10-22T17:23:56;2.37;;;2.27;;